This demonstration page uses our WeatherBlox Daily Observations layout. Learn more.

41.55636, -103.73856

Hourly Observations for June 30, 2020

Temp ( °F °C ) Dew Point ( °F °C ) Humidity (%) Winds ( mph kmh ) Pressure ( in mb ) Visibility ( mi km ) Precip ( " mm )
12:58 am 00:58 Clear 87 30.3 46 8 25 25 ENE 10 17 29.47 998 10 16.0934 0 0
1:58 am 01:58 Mostly Clear 79 26.2 49 9.2 34 34 E 7 11 29.47 998 10 16.0934 0 0
6:58 am 06:58 Clear 68 20.2 41 4.9 37 37 NW 22 35 29.52 1000 10 16.0934 0 0
7:58 am 07:58 Clear 64 17.9 42 5.4 44 44 NW 26 43 29.55 1001 10 16.0934 0 0
8:58 am 08:58 Mostly Clear 61 16.2 42 5.8 50 50 NW 22 35 29.6 1002 10 16.0934 0 0
9:58 am 09:58 Cloudy 63 17.1 41 5.1 45 45 NW 22 35 29.62 1003 10 16.0934 0 0
10:58 am 10:58 Mostly Cloudy 62 16.8 38 3.4 41 41 NW 20 31 29.65 1004 10 16.0934 0 0
11:59 am 11:59 Mostly Cloudy 59 15.1 39 3.8 47 47 WNW 17 28 29.69 1005 10 16.0934 0 0
12:58 pm 12:58 Partly Cloudy 59 14.9 37 2.6 44 44 NW 22 35 29.72 1006 10 16.0934 0 0
1:58 pm 13:58 Mostly Sunny 61 16.2 35 1.9 38 38 NW 26 43 29.73 1007 10 16.0934 0 0
2:58 pm 14:58 Mostly Cloudy 64 17.7 33 0.4 31 31 NW 29 46 29.71 1006 10 16.0934 0 0
3:58 pm 15:58 Mostly Cloudy 67 19.3 32 -0.2 27 27 NW 29 46 29.69 1005 10 16.0934 0 0
4:58 pm 16:58 Mostly Cloudy 69 20.3 32 -0.2 25 25 NW 23 37 29.68 1005 10 16.0934 0 0
5:58 pm 17:58 Mostly Cloudy 69 20.5 31 -0.5 25 25 NW 26 43 29.77 1008 10 16.0934 0 0
6:58 pm 18:58 Mostly Cloudy 70 21 31 -0.7 23 23 NW 20 31 29.8 1009 10 16.0934 0 0
7:58 pm 19:58 Mostly Cloudy 71 21.5 29 -1.7 21 21 WNW 18 30 29.8 1009 10 16.0934 0 0
8:58 pm 20:58 Partly Cloudy 73 22.7 27 -2.9 18 18 WNW 7 11 29.81 1009 10 16.0934 0 0
9:58 pm 21:58 Sunny 74 23.6 25 -3.8 16 16 WNW 10 17 29.79 1009 10 16.0934 0 0
10:58 pm 22:58 Sunny 76 24.3 24 -4.2 15 15 NW 7 11 29.79 1009 10 16.0934 0 0
11:58 pm 23:58 Sunny 76 24.6 25 -3.8 15 15 WNW 6 9 29.79 1009 10 16.0934 0 0

Powered by AerisWeather